Time;durP1;ratioP1;P1;durP2;ratioP2;P2;SDS_P1;SDS_P2;PMS_P1;PMS_P2;Temp;Humidity;BMP_temperature;BMP_pressure;BME280_temperature;BME280_humidity;BME280_pressure;Samples;Min_cycle;Max_cycle;Signal;HPM_P1;HPM_P2
2021/05/06 04:15:04;;;;;;;10.15;2.30;;;4.60;99.90;;;;;;4937345;29;20198;-74
2021/05/06 04:17:39;;;;;;;3.38;2.25;;;4.70;99.90;;;;;;4936537;29;20205;-74
2021/05/06 04:25:38;;;;;;;5.53;1.65;;;4.80;99.90;;;;;;4915297;29;20213;-74
2021/05/06 04:28:26;;;;;;;8.23;3.38;;;4.80;99.90;;;;;;4937017;29;20206;-73
2021/05/06 04:31:07;;;;;;;9.75;2.25;;;4.80;99.90;;;;;;4936622;29;20230;-73
2021/05/06 04:36:23;;;;;;;4.20;2.10;;;5.20;99.90;;;;;;4937107;29;20282;-73
2021/05/06 04:38:49;;;;;;;6.75;2.15;;;5.90;99.90;;;;;;4936923;29;20220;-74
2021/05/06 04:41:33;;;;;;;5.47;2.28;;;6.50;99.90;;;;;;4936471;29;20229;-74
2021/05/06 04:55:06;;;;;;;4.22;2.10;;;8.70;99.90;;;;;;4936634;29;20253;-73
2021/05/06 04:57:56;;;;;;;3.80;1.85;;;9.00;99.90;;;;;;4936365;29;20225;-73
2021/05/06 05:05:51;;;;;;;3.42;1.65;;;9.80;99.90;;;;;;4936445;29;20324;-74
2021/05/06 05:08:18;;;;;;;4.18;2.30;;;9.90;99.90;;;;;;4936115;29;20237;-74
2021/05/06 05:11:00;;;;;;;6.28;2.50;;;9.90;99.90;;;;;;4936152;29;20234;-74
2021/05/06 05:13:49;;;;;;;4.97;2.13;;;9.90;99.90;;;;;;4936039;29;20214;-73
2021/05/06 05:19:29;;;;;;;4.18;3.10;;;9.10;99.90;;;;;;4936452;29;20213;-73
2021/05/06 05:24:48;;;;;;;2.92;2.20;;;8.60;99.90;;;;;;4936431;29;20209;-71
2021/05/06 05:27:14;;;;;;;4.70;4.03;;;8.40;99.90;;;;;;4935844;29;20244;-72
2021/05/06 05:29:40;;;;;;;9.50;5.20;;;8.20;99.90;;;;;;4936196;29;20525;-72
2021/05/06 05:32:07;;;;;;;7.45;4.90;;;8.10;99.90;;;;;;4934481;29;20233;-72
2021/05/06 05:34:36;;;;;;;4.38;2.65;;;8.00;99.90;;;;;;4935996;29;20646;-72
2021/05/06 05:37:03;;;;;;;4.18;2.28;;;7.90;99.90;;;;;;4935679;29;20202;-72
2021/05/06 05:39:35;;;;;;;5.55;2.28;;;7.70;99.90;;;;;;4935866;29;20206;-72
2021/05/06 05:42:13;;;;;;;3.90;2.55;;;7.60;99.90;;;;;;4935691;29;20313;-72
2021/05/06 05:55:53;;;;;;;3.22;1.73;;;7.60;99.90;;;;;;4935546;29;20384;-72
2021/05/06 05:58:20;;;;;;;10.60;2.45;;;7.80;99.90;;;;;;4935789;29;20265;-73
2021/05/06 06:00:46;;;;;;;5.03;1.88;;;8.30;99.90;;;;;;4934983;29;20238;-73
2021/05/06 06:03:12;;;;;;;5.10;2.35;;;9.00;99.90;;;;;;4934735;29;20601;-72
2021/05/06 06:05:39;;;;;;;2.58;2.03;;;9.50;99.90;;;;;;4935505;29;20214;-73
2021/05/06 06:08:05;;;;;;;6.72;2.35;;;10.10;99.90;;;;;;4935433;29;20305;-73
2021/05/06 06:10:32;;;;;;;2.30;2.20;;;10.60;99.90;;;;;;4935457;29;20325;-73
2021/05/06 06:12:58;;;;;;;4.33;2.73;;;11.10;99.90;;;;;;4935407;29;20473;-73
2021/05/06 06:15:37;;;;;;;3.47;2.60;;;11.60;99.90;;;;;;4935019;29;20950;-74
2021/05/06 06:18:11;;;;;;;4.13;2.30;;;11.70;99.90;;;;;;4935238;29;20548;-73
2021/05/06 06:20:40;;;;;;;4.90;2.40;;;12.10;99.90;;;;;;4935329;29;20699;-74
2021/05/06 06:23:06;;;;;;;3.27;2.10;;;12.20;99.90;;;;;;4935330;29;20934;-73
2021/05/06 06:25:33;;;;;;;3.97;2.43;;;11.90;99.90;;;;;;4935781;29;20949;-74
2021/05/06 06:27:59;;;;;;;2.47;2.30;;;12.20;99.90;;;;;;4935489;29;20469;-74
2021/05/06 06:30:26;;;;;;;4.33;2.30;;;12.60;99.90;;;;;;4935063;29;20466;-75
2021/05/06 06:32:53;;;;;;;3.10;2.90;;;12.50;99.90;;;;;;4934735;29;20946;-74
2021/05/06 06:35:19;;;;;;;3.67;2.00;;;12.40;99.90;;;;;;4935153;29;20465;-75
2021/05/06 06:37:46;;;;;;;2.57;2.37;;;12.40;99.90;;;;;;4935218;29;20958;-74
2021/05/06 06:40:13;;;;;;;3.23;1.97;;;12.30;99.90;;;;;;4934834;29;20497;-74
2021/05/06 06:42:40;;;;;;;2.60;2.40;;;12.20;99.90;;;;;;4934093;29;20473;-74
2021/05/06 06:45:07;;;;;;;4.77;2.83;;;12.60;99.90;;;;;;4934834;29;20945;-74
2021/05/06 06:47:33;;;;;;;3.70;2.17;;;12.80;99.90;;;;;;4933926;29;20505;-74
2021/05/06 06:50:00;;;;;;;2.33;2.03;;;12.40;99.90;;;;;;4934964;29;20839;-74
2021/05/06 06:52:26;;;;;;;4.53;2.57;;;11.80;99.90;;;;;;4934753;29;20513;-74
2021/05/06 06:54:52;;;;;;;4.83;2.13;;;11.60;99.90;;;;;;4935032;29;20573;-74
2021/05/06 06:57:18;;;;;;;2.60;2.13;;;12.10;99.90;;;;;;4934638;29;20461;-74
2021/05/06 06:59:45;;;;;;;5.10;3.07;;;12.20;99.90;;;;;;4934872;29;20492;-74
2021/05/06 07:02:13;;;;;;;3.03;1.97;;;11.80;99.90;;;;;;4934053;29;20600;-73
2021/05/06 07:04:39;;;;;;;6.97;6.20;;;11.10;99.90;;;;;;4934858;29;20505;-74
2021/05/06 07:07:05;;;;;;;19.37;9.00;;;11.30;99.90;;;;;;4934594;29;20529;-74
2021/05/06 07:09:31;;;;;;;2.63;2.47;;;11.90;99.90;;;;;;4934580;29;20616;-74
2021/05/06 07:11:57;;;;;;;5.23;4.30;;;11.70;99.90;;;;;;4934738;29;20485;-74
2021/05/06 07:14:24;;;;;;;2.97;2.20;;;11.70;99.90;;;;;;4934634;29;20530;-74
2021/05/06 07:16:51;;;;;;;2.90;2.70;;;12.20;99.90;;;;;;4933955;29;20500;-74
2021/05/06 07:19:17;;;;;;;3.13;2.00;;;12.80;99.90;;;;;;4934627;29;20465;-74
2021/05/06 07:21:43;;;;;;;4.10;2.20;;;13.50;99.90;;;;;;4934796;29;20500;-73
2021/05/06 07:24:10;;;;;;;3.30;2.30;;;13.70;99.90;;;;;;4935396;29;20469;-74
2021/05/06 07:26:36;;;;;;;3.30;3.00;;;14.00;99.90;;;;;;4935420;29;21000;-73
2021/05/06 07:29:02;;;;;;;6.20;5.57;;;14.10;99.90;;;;;;4935719;29;20943;-73
2021/05/06 07:31:28;;;;;;;3.77;2.33;;;13.90;99.90;;;;;;4934604;29;20541;-72
2021/05/06 07:33:55;;;;;;;6.00;3.10;;;14.10;99.90;;;;;;4934578;29;20465;-70
2021/05/06 07:36:21;;;;;;;4.40;2.07;;;13.60;99.90;;;;;;4938581;29;20468;-72
2021/05/06 07:38:48;;;;;;;4.67;4.17;;;13.00;99.90;;;;;;4935448;29;20529;-72
2021/05/06 07:41:16;;;;;;;4.40;2.30;;;12.40;99.90;;;;;;4934383;29;20489;-72
2021/05/06 07:43:43;;;;;;;3.20;1.93;;;12.00;99.90;;;;;;4942718;29;20469;-72
2021/05/06 07:46:09;;;;;;;3.25;2.95;;;11.90;99.90;;;;;;4942155;29;20496;-72
2021/05/06 07:48:36;;;;;;;1.90;1.80;;;11.50;99.90;;;;;;4936964;29;20214;-74
2021/05/06 07:51:03;;;;;;;1.95;1.85;;;11.30;99.90;;;;;;4935865;29;20237;-74
2021/05/06 07:53:37;;;;;;;3.70;3.30;;;11.00;99.90;;;;;;4935185;29;20210;-73
2021/05/06 07:56:04;;;;;;;4.10;2.00;;;11.00;99.90;;;;;;4938407;29;20244;-72
2021/05/06 07:58:30;;;;;;;6.85;1.75;;;11.10;99.90;;;;;;4939081;29;20231;-72
2021/05/06 08:00:57;;;;;;;2.15;1.50;;;11.10;99.90;;;;;;4936871;29;20233;-71
2021/05/06 08:03:23;;;;;;;2.38;1.90;;;10.90;99.90;;;;;;4937395;29;20210;-72
2021/05/06 08:05:53;;;;;;;4.22;1.48;;;10.80;99.90;;;;;;4937569;29;20697;-71
2021/05/06 08:08:20;;;;;;;3.38;1.30;;;10.70;99.90;;;;;;4937384;29;20662;-72
2021/05/06 08:10:46;;;;;;;3.10;2.90;;;10.50;99.90;;;;;;4937507;29;20244;-71
2021/05/06 08:13:13;;;;;;;5.18;2.85;;;10.50;99.90;;;;;;4937332;29;20343;-70
2021/05/06 08:15:40;;;;;;;3.90;1.90;;;10.50;99.90;;;;;;4937252;29;20214;-71
2021/05/06 08:18:06;;;;;;;4.22;1.90;;;10.60;99.90;;;;;;4936972;29;20694;-70
2021/05/06 08:20:32;;;;;;;5.20;2.53;;;10.60;99.90;;;;;;4937114;29;20327;-69
2021/05/06 08:22:58;;;;;;;2.63;1.95;;;10.60;99.90;;;;;;4937136;29;20220;-69
2021/05/06 08:25:26;;;;;;;2.13;2.00;;;10.60;99.90;;;;;;4937057;29;20213;-69
2021/05/06 08:27:52;;;;;;;4.03;2.45;;;10.70;99.90;;;;;;4937446;29;20233;-69
2021/05/06 08:30:19;;;;;;;2.25;1.48;;;10.80;99.90;;;;;;4936845;29;20214;-73
2021/05/06 08:32:45;;;;;;;1.70;1.60;;;10.70;99.90;;;;;;4936108;29;20210;-69
2021/05/06 08:35:13;;;;;;;2.70;1.95;;;10.60;99.90;;;;;;4936893;29;20214;-69
2021/05/06 08:37:39;;;;;;;3.90;2.05;;;10.70;99.90;;;;;;4937074;29;20233;-70
2021/05/06 08:40:07;;;;;;;2.30;1.60;;;10.80;99.90;;;;;;4937242;29;20590;-70
2021/05/06 08:42:35;;;;;;;3.85;1.80;;;10.60;99.90;;;;;;4937087;29;20256;-71
2021/05/06 08:45:03;;;;;;;1.92;1.83;;;10.40;99.90;;;;;;4937094;29;20217;-70
2021/05/06 08:47:29;;;;;;;1.58;1.48;;;10.40;99.90;;;;;;4936026;29;20757;-70
2021/05/06 08:49:55;;;;;;;4.13;1.88;;;10.50;99.90;;;;;;4936938;29;20205;-71
2021/05/06 08:52:22;;;;;;;4.55;2.30;;;10.50;99.90;;;;;;4936436;29;20737;-71
2021/05/06 08:54:49;;;;;;;1.60;1.50;;;10.70;99.90;;;;;;4936909;29;20213;-72
2021/05/06 08:57:16;;;;;;;3.45;1.65;;;10.70;99.90;;;;;;4936432;29;20201;-72
2021/05/06 08:59:43;;;;;;;2.80;2.60;;;10.80;99.90;;;;;;4936700;29;20210;-70
2021/05/06 09:02:11;;;;;;;3.65;2.00;;;11.00;99.90;;;;;;4935854;29;20249;-73
2021/05/06 09:04:38;;;;;;;2.47;2.22;;;11.00;99.90;;;;;;4936557;29;20213;-71
2021/05/06 09:07:05;;;;;;;3.20;2.50;;;11.30;99.90;;;;;;4935990;29;20244;-71
2021/05/06 09:09:32;;;;;;;3.40;1.67;;;11.60;99.90;;;;;;4936614;29;20284;-71
2021/05/06 09:12:00;;;;;;;4.05;2.53;;;11.60;99.90;;;;;;4936486;29;20238;-69
2021/05/06 09:14:49;;;;;;;2.22;1.70;;;11.50;99.90;;;;;;4936471;29;20225;-69
2021/05/06 09:17:26;;;;;;;1.95;1.58;;;11.40;99.90;;;;;;4931183;29;20206;-69
2021/05/06 09:19:57;;;;;;;2.67;2.17;;;11.20;99.90;;;;;;4936317;29;20221;-69
2021/05/06 09:22:34;;;;;;;2.38;2.20;;;11.20;99.90;;;;;;4935861;29;20230;-69
2021/05/06 09:25:22;;;;;;;1.20;1.10;;;11.30;99.90;;;;;;4936089;29;20213;-73
2021/05/06 09:28:02;;;;;;;6.35;2.65;;;11.60;99.90;;;;;;4936507;29;20229;-73
2021/05/06 09:30:30;;;;;;;1.40;1.35;;;11.90;99.90;;;;;;4935420;29;20233;-73
2021/05/06 09:33:00;;;;;;;3.42;2.33;;;11.90;99.90;;;;;;4935091;29;20205;-73
2021/05/06 09:35:26;;;;;;;2.10;2.00;;;11.90;99.90;;;;;;4936193;29;20206;-73
2021/05/06 09:37:53;;;;;;;1.65;1.65;;;11.70;99.90;;;;;;4935656;29;20292;-73
2021/05/06 09:40:19;;;;;;;1.70;1.60;;;11.60;99.90;;;;;;4935619;29;20214;-72
2021/05/06 09:42:48;;;;;;;3.10;1.98;;;11.50;99.90;;;;;;4935622;29;20611;-73
2021/05/06 09:45:20;;;;;;;4.40;1.73;;;11.50;98.50;;;;;;4935719;29;20309;-73
2021/05/06 09:48:08;;;;;;;1.58;1.48;;;11.40;99.60;;;;;;4935145;29;20291;-73
2021/05/06 09:50:34;;;;;;;3.45;1.98;;;11.50;99.90;;;;;;4935371;29;20229;-73
2021/05/06 09:53:00;;;;;;;3.65;2.15;;;11.70;99.90;;;;;;4935483;29;20210;-73
2021/05/06 09:55:33;;;;;;;2.88;1.85;;;11.70;99.90;;;;;;4935306;29;20276;-73
2021/05/06 09:58:12;;;;;;;1.45;1.45;;;11.70;99.90;;;;;;4935827;29;20576;-74
2021/05/06 10:00:38;;;;;;;1.83;1.65;;;11.70;98.70;;;;;;4935008;29;20260;-73
2021/05/06 10:03:11;;;;;;;1.80;1.70;;;11.70;98.40;;;;;;4935202;29;20201;-75
2021/05/06 10:05:37;;;;;;;1.60;1.50;;;11.80;98.80;;;;;;4936054;29;20228;-74
2021/05/06 10:08:04;;;;;;;2.13;1.92;;;11.80;98.90;;;;;;4935704;29;20587;-75
2021/05/06 10:10:31;;;;;;;1.95;1.85;;;11.80;98.50;;;;;;4935489;29;20230;-75
2021/05/06 10:12:57;;;;;;;2.15;1.50;;;11.90;99.10;;;;;;4935486;29;20544;-74
2021/05/06 10:15:24;;;;;;;2.38;2.28;;;11.90;98.70;;;;;;4935242;29;20213;-73
2021/05/06 10:17:52;;;;;;;4.20;2.00;;;11.70;98.90;;;;;;4934841;29;20212;-73
2021/05/06 10:20:23;;;;;;;1.85;1.75;;;11.80;98.90;;;;;;4935791;29;20220;-71
2021/05/06 10:22:50;;;;;;;2.40;2.30;;;11.80;97.60;;;;;;4935345;29;20206;-74
2021/05/06 10:25:16;;;;;;;1.50;1.50;;;12.00;98.70;;;;;;4935579;29;20209;-73
2021/05/06 10:27:43;;;;;;;2.20;2.10;;;12.10;96.90;;;;;;4935186;29;20292;-73
2021/05/06 10:30:10;;;;;;;2.33;1.85;;;12.30;96.50;;;;;;4935487;29;20218;-73
2021/05/06 10:32:36;;;;;;;2.05;2.00;;;12.40;96.60;;;;;;4934223;29;20225;-73
2021/05/06 10:35:04;;;;;;;3.85;1.90;;;12.40;95.90;;;;;;4935610;29;20650;-73
2021/05/06 10:37:33;;;;;;;2.35;1.70;;;12.50;95.30;;;;;;4935777;29;20681;-73
2021/05/06 10:40:00;;;;;;;1.70;1.60;;;12.40;95.10;;;;;;4935686;29;20218;-75
2021/05/06 10:42:31;;;;;;;1.90;1.80;;;12.40;93.20;;;;;;4934694;29;20236;-75
2021/05/06 10:45:00;;;;;;;1.85;1.75;;;12.50;93.70;;;;;;4935301;29;20273;-75
2021/05/06 10:47:51;;;;;;;3.80;1.52;;;12.50;92.90;;;;;;4934323;29;20233;-74
2021/05/06 10:50:21;;;;;;;1.60;1.50;;;12.40;93.40;;;;;;4935020;29;20213;-72
2021/05/06 10:52:50;;;;;;;1.50;1.40;;;12.30;93.90;;;;;;4935211;29;20206;-74
2021/05/06 10:55:54;;;;;;;1.80;1.52;;;12.20;93.80;;;;;;4935670;29;20296;-74
2021/05/06 10:58:34;;;;;;;4.15;2.25;;;12.20;93.80;;;;;;4935079;29;20566;-73
2021/05/06 11:01:21;;;;;;;1.35;1.23;;;12.30;94.70;;;;;;4934184;29;20585;-73
2021/05/06 11:04:08;;;;;;;1.85;1.40;;;12.50;94.80;;;;;;4934452;29;20594;-73
2021/05/06 11:06:36;;;;;;;1.88;1.88;;;12.60;94.70;;;;;;4934762;29;20690;-73
2021/05/06 11:09:32;;;;;;;1.80;1.50;;;12.60;93.90;;;;;;4934987;29;20210;-74
2021/05/06 11:12:20;;;;;;;1.40;1.40;;;12.60;94.10;;;;;;4934295;29;20710;-73
2021/05/06 11:15:26;;;;;;;2.33;2.20;;;12.70;93.50;;;;;;4934707;29;20218;-74
2021/05/06 11:17:53;;;;;;;1.85;1.60;;;12.60;92.70;;;;;;4934324;29;20300;-72
2021/05/06 11:20:39;;;;;;;2.03;1.88;;;12.50;93.70;;;;;;4934050;29;20627;-72
2021/05/06 11:23:16;;;;;;;2.20;1.50;;;12.40;93.50;;;;;;4934343;29;20296;-74
2021/05/06 11:25:50;;;;;;;1.52;1.33;;;12.20;94.10;;;;;;4934529;29;20605;-73
2021/05/06 11:28:39;;;;;;;1.70;1.70;;;12.20;94.30;;;;;;4934243;29;20296;-74
2021/05/06 11:31:05;;;;;;;2.00;1.27;;;12.40;94.70;;;;;;4937618;29;20698;-71
2021/05/06 11:33:31;;;;;;;2.33;2.10;;;12.60;96.50;;;;;;4937650;29;20577;-72
2021/05/06 11:35:58;;;;;;;2.63;1.55;;;12.50;97.00;;;;;;4937951;29;20328;-72
2021/05/06 11:38:42;;;;;;;2.40;1.60;;;12.10;98.00;;;;;;4937692;29;20207;-72
2021/05/06 11:41:11;;;;;;;2.60;1.90;;;11.90;99.10;;;;;;4937719;29;20229;-72
2021/05/06 11:43:40;;;;;;;1.77;1.52;;;11.80;99.90;;;;;;4937541;29;20222;-72
2021/05/06 11:46:08;;;;;;;3.35;2.22;;;11.60;99.90;;;;;;4937417;29;20264;-72
2021/05/06 11:48:35;;;;;;;2.05;1.30;;;11.60;99.90;;;;;;4937382;29;20663;-72
2021/05/06 11:51:01;;;;;;;1.20;1.20;;;11.50;99.90;;;;;;4937533;29;20602;-72
2021/05/06 11:53:27;;;;;;;3.90;1.40;;;11.50;99.90;;;;;;4937568;29;20217;-72
2021/05/06 11:55:53;;;;;;;1.80;1.80;;;11.60;99.90;;;;;;4937642;29;20694;-72
2021/05/06 11:58:25;;;;;;;1.90;1.80;;;11.50;99.30;;;;;;4937360;29;20228;-70
2021/05/06 12:00:53;;;;;;;1.58;1.48;;;11.60;99.30;;;;;;4937055;29;20238;-72
2021/05/06 12:03:19;;;;;;;2.92;1.60;;;11.80;98.60;;;;;;4936935;29;20216;-72
2021/05/06 12:05:55;;;;;;;2.38;1.80;;;11.80;98.10;;;;;;4937284;29;20213;-72
2021/05/06 12:08:24;;;;;;;4.05;2.70;;;11.90;96.20;;;;;;4937407;29;20728;-71
2021/05/06 12:10:51;;;;;;;1.90;1.80;;;12.00;96.00;;;;;;4937630;29;20230;-71
2021/05/06 12:13:28;;;;;;;1.75;1.38;;;12.20;96.30;;;;;;4937214;29;20213;-71
2021/05/06 12:16:13;;;;;;;2.00;1.90;;;12.40;95.70;;;;;;4937218;29;20217;-71
2021/05/06 12:18:40;;;;;;;1.67;1.40;;;12.70;94.50;;;;;;4937135;29;20301;-71
2021/05/06 12:21:07;;;;;;;2.58;1.20;;;12.90;94.90;;;;;;4937291;29;20249;-71
2021/05/06 12:23:34;;;;;;;1.20;0.75;;;12.50;96.10;;;;;;4936833;29;20226;-72
2021/05/06 12:26:00;;;;;;;1.00;1.00;;;11.90;98.40;;;;;;4937088;29;20270;-71
2021/05/06 12:28:26;;;;;;;0.63;0.63;;;11.70;99.90;;;;;;4937082;29;20241;-71
2021/05/06 12:30:59;;;;;;;1.52;1.42;;;11.50;99.90;;;;;;4936336;29;20237;-71
2021/05/06 12:33:30;;;;;;;3.00;0.80;;;11.40;99.90;;;;;;4936469;29;20619;-73
2021/05/06 12:35:56;;;;;;;1.85;0.98;;;11.50;99.90;;;;;;4937159;29;20292;-73
2021/05/06 12:38:22;;;;;;;0.77;0.63;;;11.50;99.90;;;;;;4936942;29;20297;-73
2021/05/06 12:40:49;;;;;;;1.15;1.02;;;11.60;99.90;;;;;;4935944;29;20233;-73
2021/05/06 12:43:27;;;;;;;0.90;0.90;;;11.70;99.60;;;;;;4936647;29;20209;-73
2021/05/06 12:46:03;;;;;;;2.42;1.00;;;11.70;99.90;;;;;;4936534;29;20240;-73
2021/05/06 12:48:39;;;;;;;1.15;1.15;;;11.70;99.10;;;;;;4936473;29;20229;-73
2021/05/06 12:51:07;;;;;;;0.90;0.90;;;11.70;99.80;;;;;;4936866;29;20546;-73
2021/05/06 12:53:33;;;;;;;0.85;0.80;;;11.50;98.60;;;;;;4936551;29;20218;-73
2021/05/06 12:55:59;;;;;;;1.00;1.00;;;11.50;99.90;;;;;;4936832;29;20208;-73
2021/05/06 12:58:27;;;;;;;1.52;0.95;;;11.50;99.90;;;;;;4936585;29;20278;-71
2021/05/06 13:01:13;;;;;;;1.20;1.10;;;11.60;99.90;;;;;;4936152;29;20242;-71
2021/05/06 13:03:44;;;;;;;1.38;0.80;;;11.60;99.90;;;;;;4936559;29;20258;-72
2021/05/06 13:06:12;;;;;;;1.20;1.20;;;11.70;99.90;;;;;;4936310;29;20634;-72
2021/05/06 13:08:39;;;;;;;1.23;1.17;;;11.70;99.90;;;;;;4936498;29;20229;-72
2021/05/06 13:11:07;;;;;;;1.30;1.30;;;11.60;99.50;;;;;;4936114;29;20240;-72
2021/05/06 13:13:41;;;;;;;2.75;1.52;;;11.70;99.30;;;;;;4936116;29;20210;-72
2021/05/06 13:16:11;;;;;;;1.95;1.52;;;11.70;99.90;;;;;;4935714;29;20268;-72
2021/05/06 13:18:37;;;;;;;1.70;1.60;;;11.70;98.70;;;;;;4935532;29;20217;-72
2021/05/06 13:21:05;;;;;;;1.45;1.45;;;11.70;98.50;;;;;;4936170;29;20578;-72
2021/05/06 13:23:33;;;;;;;1.77;1.55;;;11.70;99.10;;;;;;4935746;29;20210;-72
2021/05/06 13:26:01;;;;;;;2.00;1.80;;;11.80;98.70;;;;;;4935912;29;20229;-72
2021/05/06 13:28:44;;;;;;;1.13;1.13;;;11.90;99.40;;;;;;4936185;29;20245;-74
2021/05/06 13:31:14;;;;;;;5.68;1.85;;;12.10;99.00;;;;;;4935323;29;20233;-74
2021/05/06 13:33:41;;;;;;;1.42;1.30;;;12.20;95.50;;;;;;4935495;29;20218;-71
2021/05/06 13:36:09;;;;;;;1.30;1.25;;;12.30;94.10;;;;;;4935971;29;20216;-71
2021/05/06 13:38:52;;;;;;;1.30;1.30;;;12.50;94.60;;;;;;4936011;29;20202;-71
2021/05/06 13:41:19;;;;;;;1.20;1.10;;;12.40;94.50;;;;;;4935655;29;20225;-71
2021/05/06 13:43:47;;;;;;;1.17;1.17;;;12.30;95.20;;;;;;4935381;29;20213;-71
2021/05/06 13:46:15;;;;;;;1.30;1.20;;;12.30;95.80;;;;;;4935633;29;20220;-71
2021/05/06 13:48:41;;;;;;;1.65;1.55;;;12.20;95.50;;;;;;4935231;29;20237;-70
2021/05/06 13:51:09;;;;;;;2.05;1.20;;;12.20;95.80;;;;;;4935268;29;20230;-70
2021/05/06 13:53:36;;;;;;;1.25;1.15;;;12.20;96.90;;;;;;4935444;29;20220;-70
2021/05/06 13:56:02;;;;;;;6.00;1.27;;;12.40;97.00;;;;;;4935474;29;20251;-70
2021/05/06 13:58:28;;;;;;;1.00;1.00;;;12.50;97.20;;;;;;4935292;29;20501;-69
2021/05/06 14:00:55;;;;;;;2.63;2.45;;;12.60;95.80;;;;;;4935155;29;20655;-70
2021/05/06 14:03:22;;;;;;;2.45;1.73;;;12.40;95.00;;;;;;4934819;29;20264;-70
2021/05/06 14:05:49;;;;;;;1.88;1.30;;;12.30;94.70;;;;;;4935250;29;20210;-70
2021/05/06 14:08:15;;;;;;;1.40;1.30;;;12.30;95.80;;;;;;4935343;29;20246;-70
2021/05/06 14:10:41;;;;;;;1.58;1.48;;;12.40;96.10;;;;;;4935148;29;20599;-70
2021/05/06 14:13:08;;;;;;;1.85;1.02;;;12.50;95.90;;;;;;4935087;29;20218;-70
2021/05/06 14:15:34;;;;;;;1.75;1.08;;;12.70;95.10;;;;;;4935526;29;20500;-70
2021/05/06 14:18:01;;;;;;;2.58;1.17;;;12.90;94.40;;;;;;4934971;29;20216;-70
2021/05/06 14:20:28;;;;;;;1.15;1.00;;;12.90;93.80;;;;;;4934946;29;20241;-70
2021/05/06 14:22:54;;;;;;;1.75;0.80;;;13.00;94.30;;;;;;4934795;29;20411;-70
2021/05/06 14:25:20;;;;;;;2.15;1.25;;;12.90;92.90;;;;;;4934561;29;20312;-70
2021/05/06 14:27:46;;;;;;;2.47;1.38;;;12.80;92.90;;;;;;4935044;29;20646;-70
2021/05/06 14:30:14;;;;;;;3.80;1.20;;;12.80;92.10;;;;;;4935300;29;20210;-70
2021/05/06 14:32:40;;;;;;;1.00;1.00;;;12.90;91.50;;;;;;4933990;29;20237;-70
2021/05/06 14:35:07;;;;;;;2.78;1.15;;;12.90;90.80;;;;;;4934925;29;20245;-70
2021/05/06 14:37:34;;;;;;;0.73;0.73;;;13.00;90.50;;;;;;4934776;29;20221;-70
2021/05/06 14:40:00;;;;;;;0.98;0.98;;;13.00;89.90;;;;;;4934743;29;20233;-70
2021/05/06 14:42:27;;;;;;;1.35;0.80;;;13.00;90.00;;;;;;4934587;29;20368;-70
2021/05/06 14:44:53;;;;;;;0.90;0.90;;;13.10;90.10;;;;;;4935107;29;20209;-70
2021/05/06 14:47:19;;;;;;;1.60;1.13;;;13.10;87.50;;;;;;4934103;29;20226;-69
2021/05/06 14:49:45;;;;;;;2.53;0.95;;;13.00;88.60;;;;;;4935199;29;20214;-69
2021/05/06 14:52:11;;;;;;;1.55;1.55;;;13.00;90.10;;;;;;4934682;29;20229;-70
2021/05/06 14:54:38;;;;;;;0.90;0.90;;;13.00;90.20;;;;;;4934782;29;20209;-70
2021/05/06 14:57:05;;;;;;;1.42;1.33;;;13.00;90.40;;;;;;4935019;29;20216;-69
2021/05/06 14:59:31;;;;;;;1.05;0.95;;;13.10;90.60;;;;;;4935717;29;20214;-69
2021/05/06 15:01:58;;;;;;;2.45;0.90;;;13.10;90.40;;;;;;4934333;29;20732;-71
2021/05/06 15:04:24;;;;;;;2.80;1.40;;;13.00;88.60;;;;;;4938853;29;20214;-69
2021/05/06 15:06:50;;;;;;;1.00;1.00;;;13.00;90.20;;;;;;4941369;29;20221;-71
2021/05/06 15:09:17;;;;;;;1.75;1.10;;;12.90;90.10;;;;;;4949819;29;20209;-69
2021/05/06 15:11:44;;;;;;;3.08;1.42;;;12.80;89.40;;;;;;4948328;29;20229;-70
2021/05/06 15:14:10;;;;;;;7.60;2.25;;;12.80;89.80;;;;;;4947096;29;20284;-71
2021/05/06 15:16:36;;;;;;;1.40;1.08;;;12.80;88.00;;;;;;4949139;29;20210;-71
2021/05/06 15:19:02;;;;;;;1.50;0.95;;;12.80;88.40;;;;;;4949825;29;20213;-71
2021/05/06 15:21:29;;;;;;;0.75;0.75;;;12.70;87.70;;;;;;4945981;29;20257;-70
2021/05/06 15:23:55;;;;;;;1.20;1.20;;;12.80;88.60;;;;;;4938595;29;20218;-70
2021/05/06 15:26:21;;;;;;;0.90;0.90;;;12.80;87.60;;;;;;4938840;29;20233;-70
2021/05/06 15:28:49;;;;;;;0.93;0.90;;;12.70;86.40;;;;;;4938927;29;20226;-70
2021/05/06 15:31:15;;;;;;;1.30;0.75;;;12.70;86.50;;;;;;4937983;29;20600;-70
2021/05/06 15:33:41;;;;;;;1.75;1.27;;;12.60;85.90;;;;;;4937681;29;20214;-70
2021/05/06 15:36:09;;;;;;;2.58;1.30;;;12.60;85.70;;;;;;4938237;29;20221;-71
2021/05/06 15:38:36;;;;;;;0.90;0.90;;;12.50;86.30;;;;;;4938167;29;20210;-71
2021/05/06 15:41:02;;;;;;;1.55;1.45;;;12.50;88.00;;;;;;4938360;29;20241;-70
2021/05/06 15:43:28;;;;;;;1.65;1.30;;;12.40;92.80;;;;;;4937901;29;20567;-71
2021/05/06 15:45:56;;;;;;;2.25;1.60;;;12.10;95.90;;;;;;4937483;29;20650;-70
2021/05/06 15:48:22;;;;;;;1.63;1.60;;;12.00;97.30;;;;;;4937504;29;20226;-70
2021/05/06 15:50:48;;;;;;;2.58;2.10;;;11.90;98.70;;;;;;4937522;29;20277;-71
2021/05/06 15:53:14;;;;;;;1.80;1.80;;;11.80;99.90;;;;;;4937529;29;20662;-71
2021/05/06 15:55:40;;;;;;;2.28;2.28;;;11.70;99.90;;;;;;4937746;29;20258;-70
2021/05/06 15:58:08;;;;;;;2.50;2.40;;;11.60;99.90;;;;;;4937926;29;20218;-70
2021/05/06 16:00:37;;;;;;;2.80;2.60;;;11.40;99.90;;;;;;4936901;29;20249;-70
2021/05/06 16:03:08;;;;;;;2.08;2.03;;;11.20;99.90;;;;;;4937280;29;20213;-70
2021/05/06 16:05:37;;;;;;;2.25;2.15;;;11.00;99.90;;;;;;4937847;29;20210;-69
2021/05/06 16:08:04;;;;;;;2.20;2.20;;;11.00;99.90;;;;;;4937223;29;20234;-69
2021/05/06 16:10:30;;;;;;;2.05;1.95;;;10.90;99.90;;;;;;4937090;29;20705;-69
2021/05/06 16:12:57;;;;;;;2.40;2.40;;;10.80;99.90;;;;;;4937168;29;20217;-69
2021/05/06 16:15:25;;;;;;;2.53;2.42;;;10.70;99.90;;;;;;4936975;29;20206;-70
2021/05/06 16:17:52;;;;;;;2.35;2.25;;;10.60;99.90;;;;;;4936808;29;20249;-69
2021/05/06 16:20:21;;;;;;;2.13;1.95;;;10.60;99.90;;;;;;4936901;29;20296;-71
2021/05/06 16:22:48;;;;;;;1.40;1.40;;;10.60;99.90;;;;;;4937339;29;20564;-70
2021/05/06 16:25:15;;;;;;;1.55;1.55;;;10.50;99.90;;;;;;4937424;29;20600;-69
2021/05/06 16:27:44;;;;;;;4.35;1.98;;;10.40;99.90;;;;;;4937134;29;20248;-69
2021/05/06 16:30:12;;;;;;;1.90;1.80;;;10.30;99.90;;;;;;4937143;29;20212;-70
2021/05/06 16:32:40;;;;;;;1.83;1.73;;;10.30;99.90;;;;;;4936422;29;20312;-69
2021/05/06 16:35:09;;;;;;;3.38;1.88;;;10.20;99.90;;;;;;4937257;29;20210;-69
2021/05/06 16:37:43;;;;;;;2.10;2.00;;;10.20;99.90;;;;;;4937220;29;20258;-69
2021/05/06 16:40:15;;;;;;;2.13;2.03;;;10.20;99.90;;;;;;4936760;29;20587;-70
2021/05/06 16:43:10;;;;;;;2.60;2.50;;;10.10;99.90;;;;;;4936269;29;20258;-69
2021/05/06 16:45:37;;;;;;;2.30;2.17;;;10.10;99.90;;;;;;4936276;29;20214;-69
2021/05/06 16:48:04;;;;;;;1.80;1.70;;;10.10;99.90;;;;;;4936443;29;20237;-69
2021/05/06 16:50:30;;;;;;;2.67;2.47;;;10.00;99.90;;;;;;4936396;29;20241;-69
2021/05/06 16:52:57;;;;;;;1.95;1.55;;;10.00;99.90;;;;;;4936419;29;20217;-69
2021/05/06 16:55:23;;;;;;;1.55;1.55;;;10.00;99.90;;;;;;4936388;29;20258;-70
2021/05/06 16:57:50;;;;;;;2.47;2.38;;;9.90;99.90;;;;;;4936504;29;20210;-69
2021/05/06 17:00:16;;;;;;;2.88;1.50;;;9.90;99.90;;;;;;4936740;29;20210;-69
2021/05/06 17:02:43;;;;;;;2.00;1.90;;;10.00;99.90;;;;;;4935647;29;20625;-69
2021/05/06 17:05:12;;;;;;;1.67;1.63;;;10.00;99.90;;;;;;4936359;29;20585;-69
2021/05/06 17:07:39;;;;;;;3.30;2.38;;;10.00;99.90;;;;;;4936247;29;20233;-70
2021/05/06 17:10:07;;;;;;;2.83;2.72;;;10.00;99.90;;;;;;4936212;29;20634;-69
2021/05/06 17:12:33;;;;;;;2.08;1.90;;;10.00;99.90;;;;;;4936080;29;20372;-69
2021/05/06 17:15:00;;;;;;;1.35;1.30;;;10.00;99.90;;;;;;4936392;29;20209;-69
2021/05/06 17:17:27;;;;;;;0.80;0.80;;;10.00;99.90;;;;;;4935434;29;20206;-69
2021/05/06 17:19:53;;;;;;;0.82;0.82;;;10.00;99.90;;;;;;4936246;29;20217;-69
2021/05/06 17:22:20;;;;;;;1.20;1.20;;;10.00;99.90;;;;;;4935630;29;20293;-72
2021/05/06 17:24:46;;;;;;;1.02;1.02;;;9.90;99.90;;;;;;4936176;29;20210;-72
2021/05/06 17:27:13;;;;;;;1.05;1.05;;;9.80;99.90;;;;;;4935539;29;20228;-72
2021/05/06 17:29:39;;;;;;;1.20;1.20;;;9.80;99.90;;;;;;4936086;29;20213;-72
2021/05/06 17:32:06;;;;;;;1.30;1.30;;;9.80;99.90;;;;;;4934808;29;20230;-72
2021/05/06 17:34:32;;;;;;;1.80;1.80;;;9.80;99.90;;;;;;4935752;29;20214;-72
2021/05/06 17:36:58;;;;;;;1.95;1.23;;;9.80;99.90;;;;;;4935523;29;20221;-71
2021/05/06 17:39:25;;;;;;;1.60;1.60;;;9.80;99.90;;;;;;4935857;29;20236;-73
2021/05/06 17:41:51;;;;;;;1.27;1.27;;;9.70;99.90;;;;;;4935618;29;20738;-72
2021/05/06 17:44:19;;;;;;;1.00;1.00;;;9.70;99.90;;;;;;4935638;29;20210;-71
2021/05/06 17:46:45;;;;;;;1.30;1.30;;;9.60;99.90;;;;;;4934869;29;20237;-73
2021/05/06 17:49:13;;;;;;;3.25;3.05;;;9.50;99.90;;;;;;4936343;29;20616;-72
2021/05/06 17:51:41;;;;;;;1.33;1.33;;;9.50;99.90;;;;;;4935027;29;20236;-72
2021/05/06 17:54:07;;;;;;;1.67;1.52;;;9.40;99.90;;;;;;4935576;29;20216;-72